Time;durP1;ratioP1;P1;durP2;ratioP2;P2;SDS_P1;SDS_P2;PMS_P1;PMS_P2;Temp;Humidity;BMP_temperature;BMP_pressure;BME280_temperature;BME280_humidity;BME280_pressure;Samples;Min_cycle;Max_cycle;Signal;HPM_P1;HPM_P2
2024/02/26 00:01:05;;;;;;;;;;;18.00;42.60;;;;;;1575695;74;1141;-75
2024/02/26 00:03:07;;;;;;;;;;;18.00;42.60;;;;;;1584025;74;1553;-77
2024/02/26 00:05:09;;;;;;;;;;;18.00;42.60;;;;;;1584543;74;691;-74
2024/02/26 00:07:11;;;;;;;;;;;18.00;42.60;;;;;;1567074;74;647;-74
2024/02/26 00:09:13;;;;;;;;;;;18.00;42.60;;;;;;1573934;74;750;-74
2024/02/26 00:11:15;;;;;;;;;;;18.00;42.60;;;;;;1571859;74;1145;-75
2024/02/26 00:13:17;;;;;;;;;;;18.10;42.70;;;;;;1568654;74;658;-74
2024/02/26 00:15:19;;;;;;;;;;;18.00;42.60;;;;;;1572700;74;673;-71
2024/02/26 00:17:21;;;;;;;;;;;18.00;42.60;;;;;;1575690;74;1933;-76
2024/02/26 00:19:22;;;;;;;;;;;18.00;42.60;;;;;;1570151;74;636;-77
2024/02/26 00:21:24;;;;;;;;;;;18.00;42.60;;;;;;1580850;74;764;-73
2024/02/26 00:23:27;;;;;;;;;;;18.10;42.70;;;;;;1577195;74;845;-79
2024/02/26 00:25:29;;;;;;;;;;;18.00;42.60;;;;;;1572646;74;696;-77
2024/02/26 00:27:31;;;;;;;;;;;18.10;42.80;;;;;;1579555;74;584;-73
2024/02/26 00:29:33;;;;;;;;;;;18.00;42.60;;;;;;1568867;74;1096;-74
2024/02/26 00:31:35;;;;;;;;;;;18.00;42.60;;;;;;1563032;74;944;-74
2024/02/26 00:33:36;;;;;;;;;;;18.00;42.60;;;;;;1564075;74;692;-74
2024/02/26 00:35:38;;;;;;;;;;;18.00;42.60;;;;;;1569100;75;671;-72
2024/02/26 00:37:43;;;;;;;;;;;18.00;42.60;;;;;;1579391;74;1933;-75
2024/02/26 00:39:44;;;;;;;;;;;18.00;42.60;;;;;;1578675;74;1655;-75
2024/02/26 00:41:46;;;;;;;;;;;18.00;42.60;;;;;;1569124;74;722;-76
2024/02/26 00:43:48;;;;;;;;;;;18.00;42.60;;;;;;1565128;74;673;-74
2024/02/26 00:45:51;;;;;;;;;;;18.00;42.60;;;;;;1575037;74;729;-73
2024/02/26 00:47:54;;;;;;;;;;;18.00;42.60;;;;;;1578355;74;592;-75
2024/02/26 00:49:55;;;;;;;;;;;18.10;42.80;;;;;;1579062;74;1081;-76
2024/02/26 00:51:57;;;;;;;;;;;18.00;42.60;;;;;;1579246;74;669;-74
2024/02/26 00:53:59;;;;;;;;;;;18.00;42.60;;;;;;1573056;74;752;-78
2024/02/26 00:56:01;;;;;;;;;;;18.00;42.60;;;;;;1577423;74;678;-73
2024/02/26 00:58:03;;;;;;;;;;;18.00;42.60;;;;;;1574426;74;1948;-75
2024/02/26 01:00:08;;;;;;;;;;;18.00;42.60;;;;;;1581236;74;1146;-74
2024/02/26 01:02:09;;;;;;;;;;;18.00;42.60;;;;;;1577014;74;1650;-74
2024/02/26 01:04:11;;;;;;;;;;;18.00;42.60;;;;;;1582870;74;675;-72
2024/02/26 01:06:13;;;;;;;;;;;18.00;42.60;;;;;;1579065;74;729;-75
2024/02/26 01:08:15;;;;;;;;;;;18.00;42.60;;;;;;1583648;74;731;-77
2024/02/26 01:10:17;;;;;;;;;;;18.00;42.60;;;;;;1587693;74;1149;-76
2024/02/26 01:12:19;;;;;;;;;;;18.50;42.90;;;;;;1581271;74;764;-79
2024/02/26 01:14:21;;;;;;;;;;;18.00;42.60;;;;;;1574766;74;675;-75
2024/02/26 01:16:23;;;;;;;;;;;18.00;42.60;;;;;;1577670;74;1913;-72
2024/02/26 01:18:25;;;;;;;;;;;18.00;42.60;;;;;;1583615;74;597;-74
2024/02/26 01:20:27;;;;;;;;;;;18.00;42.60;;;;;;1589422;74;1122;-74
2024/02/26 01:22:29;;;;;;;;;;;18.00;42.50;;;;;;1589664;74;539;-76
2024/02/26 01:24:31;;;;;;;;;;;18.00;42.60;;;;;;1584984;74;667;-75
2024/02/26 01:26:33;;;;;;;;;;;18.00;42.60;;;;;;1581612;74;735;-75
2024/02/26 01:28:35;;;;;;;;;;;18.00;42.60;;;;;;1572575;74;730;-73
2024/02/26 01:30:37;;;;;;;;;;;18.00;42.60;;;;;;1589230;74;1122;-74
2024/02/26 01:32:39;;;;;;;;;;;18.00;42.60;;;;;;1571434;74;679;-73
2024/02/26 01:34:40;;;;;;;;;;;18.00;42.60;;;;;;1582761;74;721;-74
2024/02/26 01:36:42;;;;;;;;;;;18.00;42.60;;;;;;1575522;74;1919;-75
2024/02/26 01:38:44;;;;;;;;;;;18.00;42.60;;;;;;1586386;74;852;-77
2024/02/26 01:40:46;;;;;;;;;;;18.00;42.60;;;;;;1516133;77;1121;-74
2024/02/26 01:42:48;;;;;;;;;;;18.00;42.60;;;;;;1578777;74;649;-76
2024/02/26 01:44:50;;;;;;;;;;;18.00;42.60;;;;;;1572891;74;682;-78
2024/02/26 01:46:53;;;;;;;;;;;18.00;42.60;;;;;;1591097;74;660;-74
2024/02/26 01:48:55;;;;;;;;;;;18.00;42.50;;;;;;1580520;74;680;-74
2024/02/26 01:50:56;;;;;;;;;;;18.00;42.50;;;;;;1581160;74;1062;-75
2024/02/26 01:52:58;;;;;;;;;;;18.00;42.50;;;;;;1571506;74;524;-74
2024/02/26 01:55:01;;;;;;;;;;;18.00;42.60;;;;;;1578756;74;1465;-73
2024/02/26 01:57:02;;;;;;;;;;;18.00;42.60;;;;;;1586616;74;1921;-74
2024/02/26 01:59:04;;;;;;;;;;;18.00;42.60;;;;;;1580977;74;736;-74
2024/02/26 02:01:06;;;;;;;;;;;18.00;42.60;;;;;;1576397;74;1126;-74
2024/02/26 02:03:08;;;;;;;;;;;18.00;42.60;;;;;;1575656;74;1075;-72
2024/02/26 02:05:10;;;;;;;;;;;18.00;42.60;;;;;;1573152;74;684;-75
2024/02/26 02:07:12;;;;;;;;;;;18.00;42.50;;;;;;1563943;74;648;-79
2024/02/26 02:09:14;;;;;;;;;;;18.00;42.50;;;;;;1567007;74;554;-77
2024/02/26 02:11:16;;;;;;;;;;;18.00;42.60;;;;;;1576281;74;1175;-76
2024/02/26 02:13:17;;;;;;;;;;;18.00;42.50;;;;;;1575412;74;777;-73
2024/02/26 02:15:19;;;;;;;;;;;18.00;42.50;;;;;;1573778;74;750;-75
2024/02/26 02:17:21;;;;;;;;;;;18.00;42.60;;;;;;1577567;74;1936;-75
2024/02/26 02:19:23;;;;;;;;;;;18.00;42.50;;;;;;1571288;74;741;-78
2024/02/26 02:21:25;;;;;;;;;;;18.00;42.60;;;;;;1562410;74;734;-75
2024/02/26 02:23:27;;;;;;;;;;;17.90;42.60;;;;;;1580258;74;600;-74
2024/02/26 02:25:29;;;;;;;;;;;18.00;42.50;;;;;;1571566;74;600;-75
2024/02/26 02:27:31;;;;;;;;;;;18.00;42.60;;;;;;1565122;74;743;-72
2024/02/26 02:29:32;;;;;;;;;;;17.90;42.50;;;;;;1577421;74;1152;-74
2024/02/26 02:31:34;;;;;;;;;;;18.00;42.50;;;;;;1570894;74;738;-74
2024/02/26 02:33:37;;;;;;;;;;;18.00;42.60;;;;;;1576570;74;704;-73
2024/02/26 02:35:39;;;;;;;;;;;17.90;42.50;;;;;;1584451;74;670;-74
2024/02/26 02:37:40;;;;;;;;;;;18.00;42.50;;;;;;1578263;74;1922;-77
2024/02/26 02:39:43;;;;;;;;;;;17.90;42.50;;;;;;1560317;74;1079;-74
2024/02/26 02:41:45;;;;;;;;;;;18.00;42.50;;;;;;1568137;74;692;-75
2024/02/26 02:43:47;;;;;;;;;;;17.90;42.50;;;;;;1571941;74;767;-75
2024/02/26 02:45:49;;;;;;;;;;;18.00;42.50;;;;;;1577508;74;795;-74
2024/02/26 02:47:50;;;;;;;;;;;18.00;42.50;;;;;;1575924;74;670;-75
2024/02/26 02:49:52;;;;;;;;;;;18.00;42.50;;;;;;1573107;74;1142;-77
2024/02/26 02:51:55;;;;;;;;;;;18.00;42.50;;;;;;1563744;74;1387;-74
2024/02/26 02:53:56;;;;;;;;;;;17.90;42.50;;;;;;1578017;74;655;-76
2024/02/26 02:55:58;;;;;;;;;;;17.90;42.50;;;;;;1567276;74;678;-75
2024/02/26 02:58:00;;;;;;;;;;;18.00;42.50;;;;;;1577180;74;1943;-72
2024/02/26 03:00:03;;;;;;;;;;;17.90;42.50;;;;;;1580139;74;1187;-71
2024/02/26 03:02:06;;;;;;;;;;;18.00;42.50;;;;;;1567643;74;984;-75
2024/02/26 03:04:08;;;;;;;;;;;18.00;42.50;;;;;;1584430;74;756;-76
2024/02/26 03:06:10;;;;;;;;;;;18.00;42.50;;;;;;1575181;74;641;-74
2024/02/26 03:08:12;;;;;;;;;;;17.90;42.50;;;;;;1576307;74;633;-76
2024/02/26 03:10:13;;;;;;;;;;;18.00;42.50;;;;;;1585294;74;1156;-74
2024/02/26 03:12:15;;;;;;;;;;;18.00;42.50;;;;;;1581047;74;613;-75
2024/02/26 03:14:17;;;;;;;;;;;18.00;42.60;;;;;;1578980;74;803;-76
2024/02/26 03:16:19;;;;;;;;;;;18.00;42.50;;;;;;1584336;74;722;-77
2024/02/26 03:18:21;;;;;;;;;;;18.00;42.50;;;;;;1580809;74;1928;-74
2024/02/26 03:20:23;;;;;;;;;;;17.90;42.50;;;;;;1580572;74;1152;-73
2024/02/26 03:22:25;;;;;;;;;;;18.00;42.40;;;;;;1571626;74;734;-73
2024/02/26 03:24:27;;;;;;;;;;;17.90;42.50;;;;;;1572183;74;665;-74
2024/02/26 03:26:31;;;;;;;;;;;18.00;42.50;;;;;;1569323;74;817;-75
2024/02/26 03:28:33;;;;;;;;;;;18.00;42.60;;;;;;1579684;74;1990;-74
2024/02/26 03:30:35;;;;;;;;;;;18.00;42.50;;;;;;1576326;74;1139;-74
2024/02/26 03:32:36;;;;;;;;;;;18.00;42.40;;;;;;1588223;74;642;-71
2024/02/26 03:34:42;;;;;;;;;;;18.00;42.40;;;;;;1581423;74;805;-73
2024/02/26 03:36:42;;;;;;;;;;;18.00;42.50;;;;;;1575103;74;771;-72
2024/02/26 03:38:44;;;;;;;;;;;17.90;42.50;;;;;;1588665;74;1945;-75
2024/02/26 03:40:46;;;;;;;;;;;18.00;42.50;;;;;;1573571;74;1136;-75
2024/02/26 03:42:48;;;;;;;;;;;18.00;42.50;;;;;;1575768;74;742;-72
2024/02/26 03:44:49;;;;;;;;;;;18.00;42.50;;;;;;1580932;74;784;-74
2024/02/26 03:46:51;;;;;;;;;;;17.90;42.50;;;;;;1565940;74;1538;-73
2024/02/26 03:48:53;;;;;;;;;;;17.90;42.40;;;;;;1577927;74;729;-72
2024/02/26 03:50:55;;;;;;;;;;;17.90;42.50;;;;;;1583793;74;1108;-74
2024/02/26 03:52:57;;;;;;;;;;;18.00;42.50;;;;;;1571618;74;752;-73
2024/02/26 03:54:59;;;;;;;;;;;17.90;42.50;;;;;;1584946;74;666;-73
2024/02/26 03:57:01;;;;;;;;;;;18.00;42.50;;;;;;1571547;74;595;-79
2024/02/26 03:59:03;;;;;;;;;;;17.90;42.50;;;;;;1581113;74;1947;-73
2024/02/26 04:01:05;;;;;;;;;;;17.90;42.50;;;;;;1589776;74;1147;-73
2024/02/26 04:03:06;;;;;;;;;;;18.00;42.40;;;;;;1583118;74;918;-75
2024/02/26 04:05:11;;;;;;;;;;;17.90;42.50;;;;;;1564682;74;706;-74
2024/02/26 04:07:13;;;;;;;;;;;18.00;42.50;;;;;;1548139;74;667;-78
2024/02/26 04:09:15;;;;;;;;;;;18.00;42.50;;;;;;1567562;74;647;-73
2024/02/26 04:11:21;;;;;;;;;;;18.00;42.50;;;;;;1552380;74;1189;-75
2024/02/26 04:13:20;;;;;;;;;;;17.90;42.50;;;;;;1567990;74;1601;-75
2024/02/26 04:15:22;;;;;;;;;;;18.00;42.40;;;;;;1550019;74;526;-74
2024/02/26 04:17:24;;;;;;;;;;;18.00;42.50;;;;;;1583469;74;640;-76
2024/02/26 04:19:26;;;;;;;;;;;18.00;42.50;;;;;;1557839;74;1937;-80
2024/02/26 04:21:28;;;;;;;;;;;17.90;42.50;;;;;;1555106;74;627;-75
2024/02/26 04:23:30;;;;;;;;;;;17.90;42.40;;;;;;1557456;74;523;-78
2024/02/26 04:25:32;;;;;;;;;;;18.00;42.50;;;;;;1570263;74;517;-74
2024/02/26 04:27:34;;;;;;;;;;;17.90;42.40;;;;;;1550934;74;609;-76
2024/02/26 04:29:35;;;;;;;;;;;18.00;42.50;;;;;;1527896;76;1160;-72
2024/02/26 04:31:38;;;;;;;;;;;18.00;42.50;;;;;;1551773;74;704;-73
2024/02/26 04:33:42;;;;;;;;;;;18.00;42.40;;;;;;1553880;74;748;-75
2024/02/26 04:35:43;;;;;;;;;;;18.00;42.50;;;;;;1549632;74;678;-74
2024/02/26 04:37:45;;;;;;;;;;;18.00;42.50;;;;;;1563223;74;1942;-75
2024/02/26 04:39:47;;;;;;;;;;;17.90;42.50;;;;;;1548116;74;1139;-74
2024/02/26 04:41:49;;;;;;;;;;;18.00;42.50;;;;;;1554225;74;770;-76
2024/02/26 04:43:51;;;;;;;;;;;18.00;42.50;;;;;;1555149;74;1342;-74
2024/02/26 04:45:53;;;;;;;;;;;18.00;42.50;;;;;;1554202;74;709;-74
2024/02/26 04:47:55;;;;;;;;;;;17.90;42.50;;;;;;1563441;74;679;-74
2024/02/26 04:49:57;;;;;;;;;;;18.00;42.40;;;;;;1560232;74;1152;-73
2024/02/26 04:51:59;;;;;;;;;;;18.00;42.50;;;;;;1558438;74;778;-76
2024/02/26 04:54:00;;;;;;;;;;;17.90;42.50;;;;;;1558344;74;742;-76
2024/02/26 04:56:03;;;;;;;;;;;18.00;42.50;;;;;;1560671;74;721;-73
2024/02/26 04:58:05;;;;;;;;;;;18.00;42.50;;;;;;1573600;74;1916;-77
2024/02/26 05:00:08;;;;;;;;;;;18.00;42.50;;;;;;1548013;74;1170;-75
2024/02/26 05:02:10;;;;;;;;;;;18.00;42.50;;;;;;1563413;74;656;-74
2024/02/26 05:04:12;;;;;;;;;;;18.00;42.50;;;;;;1562801;74;1039;-75
2024/02/26 05:06:13;;;;;;;;;;;18.00;42.50;;;;;;1581099;74;670;-76
2024/02/26 05:08:15;;;;;;;;;;;18.00;42.50;;;;;;1584926;74;764;-78
2024/02/26 05:10:17;;;;;;;;;;;17.90;42.50;;;;;;1590834;74;1160;-74
2024/02/26 05:12:19;;;;;;;;;;;18.00;42.50;;;;;;1591955;74;748;-73
2024/02/26 05:14:21;;;;;;;;;;;17.90;42.50;;;;;;1586127;74;656;-76
2024/02/26 05:16:24;;;;;;;;;;;18.00;42.50;;;;;;1592818;74;638;-73
2024/02/26 05:18:26;;;;;;;;;;;18.00;42.40;;;;;;1584154;74;1938;-77
2024/02/26 05:20:28;;;;;;;;;;;17.90;42.50;;;;;;1585142;74;1130;-74
2024/02/26 05:22:30;;;;;;;;;;;17.90;42.50;;;;;;1584979;74;732;-72
2024/02/26 05:24:32;;;;;;;;;;;17.90;42.50;;;;;;1584918;74;647;-74
2024/02/26 05:26:33;;;;;;;;;;;18.00;42.50;;;;;;1576719;74;716;-74
2024/02/26 05:28:37;;;;;;;;;;;18.00;42.50;;;;;;1581715;74;676;-75
2024/02/26 05:30:40;;;;;;;;;;;18.00;42.50;;;;;;1585462;74;1183;-75
2024/02/26 05:32:41;;;;;;;;;;;18.00;42.50;;;;;;1575893;74;669;-77
2024/02/26 05:34:43;;;;;;;;;;;18.00;42.50;;;;;;1596337;74;661;-73
2024/02/26 05:36:45;;;;;;;;;;;17.90;42.50;;;;;;1584646;74;629;-74
2024/02/26 05:38:47;;;;;;;;;;;17.90;42.50;;;;;;1589353;74;1934;-75
2024/02/26 05:40:52;;;;;;;;;;;18.00;42.40;;;;;;1592052;74;1680;-79
2024/02/26 05:42:52;;;;;;;;;;;18.00;42.50;;;;;;1592082;74;1680;-73
2024/02/26 05:44:54;;;;;;;;;;;17.90;42.40;;;;;;1585859;74;674;-74
2024/02/26 05:46:56;;;;;;;;;;;18.00;42.40;;;;;;1588047;74;770;-75
2024/02/26 05:48:58;;;;;;;;;;;18.00;42.50;;;;;;1589454;74;694;-73
2024/02/26 05:51:00;;;;;;;;;;;17.90;42.40;;;;;;1579087;74;1139;-72
2024/02/26 05:53:02;;;;;;;;;;;17.90;42.20;;;;;;1583819;74;765;-80
2024/02/26 05:55:04;;;;;;;;;;;17.90;42.30;;;;;;1584165;74;623;-78
2024/02/26 05:57:06;;;;;;;;;;;18.00;40.40;;;;;;1587382;74;898;-79
2024/02/26 05:59:07;;;;;;;;;;;17.90;40.00;;;;;;1584909;74;1922;-79
2024/02/26 06:01:10;;;;;;;;;;;17.90;39.60;;;;;;1591173;74;1124;-80
2024/02/26 06:03:12;;;;;;;;;;;17.90;39.40;;;;;;1586695;74;746;-80
2024/02/26 06:05:14;;;;;;;;;;;17.90;40.30;;;;;;1572811;74;1104;-75
2024/02/26 06:07:15;;;;;;;;;;;17.90;39.80;;;;;;1580513;74;665;-79
2024/02/26 06:09:17;;;;;;;;;;;17.80;39.90;;;;;;1580857;74;757;-81
2024/02/26 06:11:19;;;;;;;;;;;17.80;39.80;;;;;;1580325;74;1157;-79
2024/02/26 06:13:21;;;;;;;;;;;17.80;40.80;;;;;;1572292;74;796;-80
2024/02/26 06:15:23;;;;;;;;;;;17.90;40.90;;;;;;1581581;74;664;-79
2024/02/26 06:17:25;;;;;;;;;;;17.80;40.70;;;;;;1579105;74;764;-80
2024/02/26 06:19:27;;;;;;;;;;;17.80;40.90;;;;;;1584706;74;1914;-81
2024/02/26 06:21:28;;;;;;;;;;;17.80;41.00;;;;;;1589798;74;783;-82
2024/02/26 06:23:30;;;;;;;;;;;17.80;41.20;;;;;;1578977;74;775;-78
2024/02/26 06:25:32;;;;;;;;;;;17.80;41.20;;;;;;1586071;74;739;-78
2024/02/26 06:27:34;;;;;;;;;;;17.80;41.20;;;;;;1581970;74;683;-78
2024/02/26 06:29:36;;;;;;;;;;;17.80;41.10;;;;;;1578240;74;1181;-78
2024/02/26 06:31:38;;;;;;;;;;;17.80;38.90;;;;;;1579992;74;642;-81
2024/02/26 06:33:40;;;;;;;;;;;17.80;38.70;;;;;;1581852;74;682;-80
2024/02/26 06:35:42;;;;;;;;;;;17.80;40.10;;;;;;1578486;74;1609;-77
2024/02/26 06:37:44;;;;;;;;;;;17.70;40.50;;;;;;1592646;74;805;-81
2024/02/26 06:39:46;;;;;;;;;;;17.80;40.40;;;;;;1583881;74;1919;-83
2024/02/26 06:41:48;;;;;;;;;;;17.80;40.60;;;;;;1581551;74;698;-79
2024/02/26 06:43:49;;;;;;;;;;;17.80;40.60;;;;;;1587443;74;727;-79
2024/02/26 06:45:51;;;;;;;;;;;17.80;39.40;;;;;;1574361;74;698;-72
2024/02/26 06:47:53;;;;;;;;;;;17.70;38.50;;;;;;1584748;74;732;-78
2024/02/26 06:49:58;;;;;;;;;;;17.80;39.20;;;;;;1588810;74;1139;-79
2024/02/26 06:51:59;;;;;;;;;;;17.80;38.00;;;;;;1585685;74;1117;-79
2024/02/26 06:54:00;;;;;;;;;;;17.80;39.10;;;;;;1580148;74;657;-80
2024/02/26 06:56:02;;;;;;;;;;;17.70;39.70;;;;;;1577488;74;700;-79
2024/02/26 06:58:04;;;;;;;;;;;17.70;40.10;;;;;;1585878;74;669;-79
2024/02/26 07:00:06;;;;;;;;;;;17.70;40.20;;;;;;1583176;74;1910;-78
2024/02/26 07:02:08;;;;;;;;;;;17.80;40.20;;;;;;1574229;74;738;-78
2024/02/26 07:04:10;;;;;;;;;;;17.70;40.20;;;;;;1580783;74;581;-78
2024/02/26 07:06:13;;;;;;;;;;;17.80;40.20;;;;;;1561604;74;1093;-79
2024/02/26 07:08:15;;;;;;;;;;;17.80;40.10;;;;;;1560301;74;670;-78
2024/02/26 07:10:17;;;;;;;;;;;17.80;40.10;;;;;;1558203;74;1184;-79
2024/02/26 07:12:21;;;;;;;;;;;17.70;40.10;;;;;;1562503;74;691;-79
2024/02/26 07:14:24;;;;;;;;;;;17.80;40.10;;;;;;1567832;74;714;-81
2024/02/26 07:16:26;;;;;;;;;;;17.70;40.10;;;;;;1564538;74;651;-79
2024/02/26 07:18:28;;;;;;;;;;;17.80;39.90;;;;;;1564890;74;725;-76
2024/02/26 07:20:30;;;;;;;;;;;17.80;40.00;;;;;;1566418;74;1939;-79
2024/02/26 07:22:32;;;;;;;;;;;17.80;40.00;;;;;;1554873;74;735;-79
2024/02/26 07:24:34;;;;;;;;;;;17.80;40.00;;;;;;1554543;74;648;-78
2024/02/26 07:26:36;;;;;;;;;;;17.80;40.00;;;;;;1562713;74;666;-80
2024/02/26 07:28:38;;;;;;;;;;;17.70;40.00;;;;;;1551218;74;637;-79
2024/02/26 07:30:40;;;;;;;;;;;17.80;39.90;;;;;;1568456;74;1226;-79
2024/02/26 07:32:42;;;;;;;;;;;17.80;39.90;;;;;;1564921;74;699;-81
2024/02/26 07:34:44;;;;;;;;;;;17.80;40.00;;;;;;1571964;74;749;-79
2024/02/26 07:36:46;;;;;;;;;;;17.80;40.00;;;;;;1552578;74;1551;-83
2024/02/26 07:38:48;;;;;;;;;;;17.80;39.90;;;;;;1563095;74;1936;-80
2024/02/26 07:40:50;;;;;;;;;;;17.80;39.90;;;;;;1568731;74;1155;-81
2024/02/26 07:42:52;;;;;;;;;;;17.80;40.00;;;;;;1559093;74;751;-80
2024/02/26 07:44:53;;;;;;;;;;;17.80;39.90;;;;;;1550553;74;597;-80
2024/02/26 07:46:55;;;;;;;;;;;17.80;39.90;;;;;;1565396;74;682;-80
2024/02/26 07:48:57;;;;;;;;;;;17.80;39.90;;;;;;1563748;74;707;-81
2024/02/26 07:51:00;;;;;;;;;;;17.80;39.90;;;;;;1562458;74;1133;-77
2024/02/26 07:53:02;;;;;;;;;;;17.80;39.80;;;;;;1550745;74;752;-80
2024/02/26 07:55:04;;;;;;;;;;;17.80;39.60;;;;;;1565207;74;699;-80
2024/02/26 07:57:07;;;;;;;;;;;17.80;39.70;;;;;;1574356;74;592;-79
2024/02/26 07:59:09;;;;;;;;;;;17.80;39.80;;;;;;1555953;74;1918;-80
2024/02/26 08:01:13;;;;;;;;;;;17.70;39.80;;;;;;1566515;74;1125;-81
2024/02/26 08:03:15;;;;;;;;;;;17.80;39.70;;;;;;1565807;74;823;-79
2024/02/26 08:05:17;;;;;;;;;;;17.70;39.70;;;;;;1567466;74;1065;-80
2024/02/26 08:07:21;;;;;;;;;;;17.80;39.70;;;;;;1584658;74;763;-82
2024/02/26 08:09:22;;;;;;;;;;;17.70;39.50;;;;;;1580942;74;762;-78
2024/02/26 08:11:24;;;;;;;;;;;17.80;39.60;;;;;;1581874;74;1209;-80
2024/02/26 08:13:26;;;;;;;;;;;17.80;39.70;;;;;;1587331;74;696;-81
2024/02/26 08:15:28;;;;;;;;;;;17.80;39.60;;;;;;1574079;74;689;-80
2024/02/26 08:17:30;;;;;;;;;;;17.80;39.70;;;;;;1581203;74;683;-80
2024/02/26 08:19:32;;;;;;;;;;;17.80;39.70;;;;;;1584059;74;1937;-80
2024/02/26 08:21:34;;;;;;;;;;;17.80;39.80;;;;;;1586274;74;910;-79
2024/02/26 08:23:36;;;;;;;;;;;17.80;39.80;;;;;;1587330;74;627;-79
2024/02/26 08:25:37;;;;;;;;;;;17.80;39.70;;;;;;1580907;74;744;-82
2024/02/26 08:27:39;;;;;;;;;;;17.80;39.80;;;;;;1578392;74;672;-80
2024/02/26 08:29:41;;;;;;;;;;;17.80;39.80;;;;;;1576022;74;1105;-83
2024/02/26 08:31:43;;;;;;;;;;;17.80;39.90;;;;;;1584923;74;740;-81
2024/02/26 08:33:45;;;;;;;;;;;17.80;39.90;;;;;;1581954;74;707;-80
2024/02/26 08:35:47;;;;;;;;;;;17.80;39.80;;;;;;1590145;74;1566;-82
2024/02/26 08:37:49;;;;;;;;;;;17.80;39.90;;;;;;1583687;74;730;-78
2024/02/26 08:39:51;;;;;;;;;;;17.80;39.50;;;;;;1581618;74;1944;-81
2024/02/26 08:41:53;;;;;;;;;;;17.70;38.80;;;;;;1579758;74;729;-78
2024/02/26 08:43:55;;;;;;;;;;;17.80;39.20;;;;;;1580789;74;630;-81
2024/02/26 08:45:57;;;;;;;;;;;17.70;39.60;;;;;;1581292;74;582;-80
2024/02/26 08:47:59;;;;;;;;;;;17.80;39.80;;;;;;1574416;74;691;-83
2024/02/26 08:50:02;;;;;;;;;;;17.70;39.80;;;;;;1577163;74;1154;-81
2024/02/26 08:52:04;;;;;;;;;;;17.70;39.80;;;;;;1570940;74;730;-81
2024/02/26 08:54:06;;;;;;;;;;;17.80;39.90;;;;;;1587553;74;694;-80
2024/02/26 08:56:08;;;;;;;;;;;17.70;40.00;;;;;;1583641;74;698;-83
2024/02/26 08:58:10;;;;;;;;;;;17.80;40.00;;;;;;1577507;74;682;-81
2024/02/26 09:00:12;;;;;;;;;;;17.70;40.00;;;;;;1571876;74;1944;-78
2024/02/26 09:02:14;;;;;;;;;;;17.80;40.00;;;;;;1578274;74;772;-79
2024/02/26 09:04:16;;;;;;;;;;;17.80;40.00;;;;;;1592154;74;724;-83
2024/02/26 09:06:18;;;;;;;;;;;17.80;40.00;;;;;;1583381;74;1081;-79
2024/02/26 09:08:20;;;;;;;;;;;17.70;40.00;;;;;;1566263;74;676;-80
2024/02/26 09:10:22;;;;;;;;;;;17.80;40.00;;;;;;1580162;74;1230;-81
2024/02/26 09:12:24;;;;;;;;;;;17.70;40.10;;;;;;1587883;74;665;-81
2024/02/26 09:14:26;;;;;;;;;;;17.80;40.10;;;;;;1582374;74;657;-81
2024/02/26 09:16:27;;;;;;;;;;;17.80;40.10;;;;;;1585898;74;627;-80
2024/02/26 09:18:29;;;;;;;;;;;17.80;40.10;;;;;;1576042;74;694;-82
2024/02/26 09:20:31;;;;;;;;;;;17.80;40.10;;;;;;1587188;74;1940;-80
2024/02/26 09:22:34;;;;;;;;;;;17.80;40.10;;;;;;1579123;74;737;-80
2024/02/26 09:24:36;;;;;;;;;;;17.80;40.10;;;;;;1580807;74;667;-78
2024/02/26 09:26:38;;;;;;;;;;;17.80;40.10;;;;;;1587681;74;673;-80
2024/02/26 09:28:40;;;;;;;;;;;17.80;40.20;;;;;;1590281;74;692;-80
2024/02/26 09:30:42;;;;;;;;;;;17.80;40.20;;;;;;1579990;74;1117;-76
2024/02/26 09:32:45;;;;;;;;;;;17.70;40.10;;;;;;1590057;74;1471;-76
2024/02/26 09:34:47;;;;;;;;;;;17.80;40.10;;;;;;1568745;74;770;-75
2024/02/26 09:36:49;;;;;;;;;;;17.80;40.10;;;;;;1572962;74;698;-77
2024/02/26 09:38:51;;;;;;;;;;;17.80;40.20;;;;;;1578071;74;686;-79
2024/02/26 09:40:53;;;;;;;;;;;17.80;40.20;;;;;;1588911;74;1934;-76
2024/02/26 09:42:57;;;;;;;;;;;17.80;40.20;;;;;;1581928;74;771;-76
2024/02/26 09:44:59;;;;;;;;;;;17.80;40.20;;;;;;1583178;74;756;-78
2024/02/26 09:47:01;;;;;;;;;;;17.80;40.20;;;;;;1583241;74;725;-76
2024/02/26 09:49:03;;;;;;;;;;;17.80;40.20;;;;;;1585442;74;682;-75
2024/02/26 09:51:05;;;;;;;;;;;17.80;40.20;;;;;;1579344;74;1146;-79
2024/02/26 09:53:10;;;;;;;;;;;17.80;40.30;;;;;;1572727;74;669;-80
2024/02/26 09:55:10;;;;;;;;;;;17.80;40.30;;;;;;1584730;74;973;-79
2024/02/26 09:57:15;;;;;;;;;;;17.80;40.30;;;;;;1579147;74;674;-78
2024/02/26 09:59:16;;;;;;;;;;;17.80;40.20;;;;;;1587175;74;1136;-75
2024/02/26 10:01:18;;;;;;;;;;;17.80;40.30;;;;;;1583695;74;1930;-78
2024/02/26 10:03:21;;;;;;;;;;;17.90;40.50;;;;;;1586486;74;674;-79
2024/02/26 10:05:23;;;;;;;;;;;17.80;40.30;;;;;;1578747;74;732;-80
2024/02/26 10:07:25;;;;;;;;;;;17.80;40.40;;;;;;1580934;74;1107;-79
2024/02/26 10:09:27;;;;;;;;;;;17.80;40.40;;;;;;1570068;74;1176;-79
2024/02/26 10:11:29;;;;;;;;;;;17.80;40.40;;;;;;1579768;74;744;-80
2024/02/26 10:13:31;;;;;;;;;;;17.80;40.60;;;;;;1579723;74;677;-82
2024/02/26 10:15:33;;;;;;;;;;;17.80;40.70;;;;;;1573881;74;735;-79
2024/02/26 10:17:36;;;;;;;;;;;17.80;40.70;;;;;;1563817;74;626;-80
2024/02/26 10:19:38;;;;;;;;;;;17.80;40.80;;;;;;1574682;74;1183;-80
2024/02/26 10:21:41;;;;;;;;;;;17.80;40.80;;;;;;1583948;74;1931;-81
2024/02/26 10:23:45;;;;;;;;;;;17.90;41.00;;;;;;1578465;74;721;-81
2024/02/26 10:25:56;;;;;;;;;;;17.80;40.90;;;;;;1582192;74;707;-80
2024/02/26 10:27:59;;;;;;;;;;;17.80;40.90;;;;;;1579037;74;735;-79
2024/02/26 10:30:05;;;;;;;;;;;17.90;41.00;;;;;;1586614;74;1544;-80
2024/02/26 10:32:07;;;;;;;;;;;17.90;41.10;;;;;;1568698;74;1060;-80
2024/02/26 10:34:09;;;;;;;;;;;17.90;41.10;;;;;;1544603;76;736;-81
2024/02/26 10:36:11;;;;;;;;;;;17.90;41.10;;;;;;1582403;74;663;-82
2024/02/26 10:38:13;;;;;;;;;;;17.80;41.00;;;;;;1579193;74;736;-80
2024/02/26 10:40:15;;;;;;;;;;;17.80;41.00;;;;;;1577041;74;1923;-81
2024/02/26 10:42:19;;;;;;;;;;;17.90;41.20;;;;;;1581127;74;634;-75
2024/02/26 10:44:21;;;;;;;;;;;17.90;40.40;;;;;;1575617;74;993;-77
2024/02/26 10:46:23;;;;;;;;;;;17.80;39.70;;;;;;1572142;74;1059;-76
2024/02/26 10:48:25;;;;;;;;;;;17.80;39.70;;;;;;1579414;74;741;-70
2024/02/26 10:50:26;;;;;;;;;;;17.80;39.90;;;;;;1577986;74;1149;-80
2024/02/26 10:52:28;;;;;;;;;;;17.70;40.30;;;;;;1566911;74;610;-78
2024/02/26 10:54:30;;;;;;;;;;;17.80;40.50;;;;;;1579117;74;719;-81
2024/02/26 10:56:33;;;;;;;;;;;17.70;40.70;;;;;;1584325;74;664;-79
2024/02/26 10:58:35;;;;;;;;;;;17.80;40.80;;;;;;1566627;74;718;-79
2024/02/26 11:00:38;;;;;;;;;;;17.80;40.90;;;;;;1581562;74;1943;-78
2024/02/26 11:02:40;;;;;;;;;;;17.80;40.80;;;;;;1572343;75;682;-78
2024/02/26 11:04:42;;;;;;;;;;;17.80;41.00;;;;;;1579040;74;719;-79
2024/02/26 11:06:45;;;;;;;;;;;17.80;41.00;;;;;;1574562;74;942;-77
2024/02/26 11:08:53;;;;;;;;;;;17.80;41.00;;;;;;1579345;74;669;-78
2024/02/26 11:10:55;;;;;;;;;;;17.80;41.00;;;;;;1572507;74;1188;-79
2024/02/26 11:12:57;;;;;;;;;;;17.80;41.00;;;;;;1579737;74;689;-79
2024/02/26 11:15:01;;;;;;;;;;;17.80;41.00;;;;;;1576232;74;732;-78
2024/02/26 11:17:02;;;;;;;;;;;17.90;41.10;;;;;;1579445;74;771;-77
2024/02/26 11:19:04;;;;;;;;;;;17.80;41.00;;;;;;1577514;74;670;-79
2024/02/26 11:21:08;;;;;;;;;;;17.80;41.00;;;;;;1580190;74;1944;-82
2024/02/26 11:23:10;;;;;;;;;;;17.80;41.00;;;;;;1577942;74;730;-77
2024/02/26 11:25:12;;;;;;;;;;;17.80;41.00;;;;;;1586398;74;1541;-78
2024/02/26 11:27:14;;;;;;;;;;;17.80;41.00;;;;;;1575542;74;686;-80
2024/02/26 11:29:18;;;;;;;;;;;17.80;41.00;;;;;;1584458;74;1013;-78
2024/02/26 11:31:26;;;;;;;;;;;17.80;41.00;;;;;;1585397;74;1156;-78
2024/02/26 11:33:23;;;;;;;;;;;17.80;41.10;;;;;;1575914;74;1665;-79
2024/02/26 11:35:25;;;;;;;;;;;17.80;41.00;;;;;;1585842;74;545;-79
2024/02/26 11:37:27;;;;;;;;;;;17.80;41.00;;;;;;1584206;74;721;-79
2024/02/26 11:39:33;;;;;;;;;;;17.80;41.10;;;;;;1580464;74;1158;-77
2024/02/26 11:41:32;;;;;;;;;;;17.90;41.20;;;;;;1589724;74;1934;-79
2024/02/26 11:43:50;;;;;;;;;;;17.90;41.20;;;;;;1583952;74;750;-78
2024/02/26 11:45:52;;;;;;;;;;;17.90;41.20;;;;;;1576008;74;650;-80
2024/02/26 11:47:57;;;;;;;;;;;17.90;41.20;;;;;;1580177;74;679;-80
2024/02/26 11:49:59;;;;;;;;;;;17.90;41.30;;;;;;1581607;74;1146;-75
2024/02/26 11:52:03;;;;;;;;;;;17.90;40.90;;;;;;1580270;74;708;-76
2024/02/26 11:54:05;;;;;;;;;;;17.80;40.10;;;;;;1557791;75;663;-78
2024/02/26 11:56:13;;;;;;;;;;;17.80;40.00;;;;;;1577153;74;755;-78
2024/02/26 11:58:15;;;;;;;;;;;17.80;40.30;;;;;;1582009;74;656;-80
2024/02/26 12:00:22;;;;;;;;;;;17.80;40.60;;;;;;1578689;74;1947;-76
2024/02/26 12:02:39;;;;;;;;;;;17.70;40.80;;;;;;1579010;74;1107;-78
2024/02/26 12:04:41;;;;;;;;;;;17.80;40.90;;;;;;1580501;74;727;-79
2024/02/26 12:06:43;;;;;;;;;;;17.80;41.00;;;;;;1585140;74;830;-80
2024/02/26 12:08:45;;;;;;;;;;;17.90;41.10;;;;;;1579124;74;1090;-78